createdAt,value
2019-03-31T00:00:10.188Z,101299.92
2019-03-31T00:05:17.208Z,101299.91
2019-03-31T00:10:22.707Z,101288.59
2019-03-31T00:15:28.232Z,101275.89
2019-03-31T00:20:33.464Z,101270.23
2019-03-31T00:25:40.376Z,101280.56
2019-03-31T00:30:45.921Z,101275.14
2019-03-31T00:35:51.340Z,101271.81
2019-03-31T00:40:57.007Z,101260.77
2019-03-31T00:46:02.504Z,101250.84
2019-03-31T00:51:07.830Z,101255.77
2019-03-31T00:56:13.214Z,101240.55
2019-03-31T01:01:20.531Z,101250.47
2019-03-31T01:06:29.056Z,101249.26
2019-03-31T01:11:34.826Z,101246.70
2019-03-31T01:16:40.184Z,101246.33
2019-03-31T01:21:45.846Z,101238.97
2019-03-31T01:26:51.413Z,101247.11
2019-03-31T01:31:57.250Z,101242.05
2019-03-31T01:37:02.651Z,101232.56
2019-03-31T01:42:08.191Z,101229.64
2019-03-31T01:47:14.284Z,101233.47
2019-03-31T01:52:19.743Z,101237.37
2019-03-31T01:57:26.784Z,101232.37
2019-03-31T02:02:32.464Z,101237.30
2019-03-31T02:07:38.067Z,101227.11
2019-03-31T02:12:43.877Z,101219.42
2019-03-31T02:17:49.240Z,101220.35
2019-03-31T02:22:54.991Z,101219.50
2019-03-31T02:28:00.237Z,101216.69
2019-03-31T02:38:17.735Z,101217.67
2019-03-31T02:43:23.669Z,101214.98
2019-03-31T02:48:29.143Z,101219.25
2019-03-31T02:53:35.364Z,101211.39
2019-03-31T02:58:41.189Z,101212.72
2019-03-31T03:03:48.383Z,101213.13
2019-03-31T03:08:55.757Z,101216.82
2019-03-31T03:14:04.037Z,101211.56
2019-03-31T03:19:09.587Z,101196.89
2019-03-31T03:24:14.963Z,101204.25
2019-03-31T03:29:20.508Z,101208.53
2019-03-31T03:34:25.869Z,101213.25
2019-03-31T03:39:31.218Z,101223.21
2019-03-31T03:44:36.590Z,101224.88
2019-03-31T03:49:41.945Z,101237.62
2019-03-31T03:54:47.119Z,101236.59
2019-03-31T03:59:52.437Z,101239.91
2019-03-31T04:04:57.604Z,101244.66
2019-03-31T04:10:02.911Z,101247.08
2019-03-31T04:15:08.324Z,101255.45
2019-03-31T04:20:13.990Z,101264.59
2019-03-31T04:25:19.280Z,101261.89
2019-03-31T04:30:24.649Z,101266.36
2019-03-31T04:35:30.171Z,101270.43
2019-03-31T04:40:35.436Z,101267.59
2019-03-31T04:45:40.781Z,101274.44
2019-03-31T04:50:46.261Z,101278.55
2019-03-31T04:55:51.699Z,101274.41
2019-03-31T05:00:57.057Z,101283.39
2019-03-31T05:06:02.515Z,101312.48
2019-03-31T05:11:07.881Z,101311.54
2019-03-31T05:16:13.236Z,101321.63
2019-03-31T05:21:18.699Z,101326.36
2019-03-31T05:26:24.177Z,101322.52
2019-03-31T05:31:30.031Z,101338.22
2019-03-31T05:36:35.503Z,101339.92
2019-03-31T05:41:41.034Z,101351.73
2019-03-31T05:46:46.566Z,101345.13
2019-03-31T05:51:51.861Z,101356.58
2019-03-31T05:56:57.570Z,101357.27
2019-03-31T06:02:03.420Z,101363.02
2019-03-31T06:07:08.810Z,101368.27
2019-03-31T06:12:14.145Z,101353.42
2019-03-31T06:17:19.490Z,101357.62
2019-03-31T06:22:24.915Z,101357.62
2019-03-31T06:27:30.537Z,101358.33
2019-03-31T06:32:35.987Z,101359.11
2019-03-31T06:37:41.239Z,101357.20
2019-03-31T06:42:46.712Z,101366.55
2019-03-31T06:47:52.441Z,101366.55
2019-03-31T06:52:58.249Z,101385.36
2019-03-31T06:58:03.595Z,101388.44
2019-03-31T07:03:08.871Z,101403.31
2019-03-31T07:08:14.199Z,101408.12
2019-03-31T07:13:20.433Z,101412.47
2019-03-31T07:18:26.040Z,101416.02
2019-03-31T07:23:31.514Z,101431.82
2019-03-31T07:28:37.184Z,101434.13
2019-03-31T07:33:42.648Z,101442.05
2019-03-31T07:38:48.476Z,101439.63
2019-03-31T07:43:54.267Z,101451.93
2019-03-31T07:48:59.527Z,101451.79
2019-03-31T07:54:05.509Z,101455.15
2019-03-31T07:59:10.765Z,101450.42
2019-03-31T08:04:16.115Z,101464.52
2019-03-31T08:09:21.633Z,101470.21
2019-03-31T08:14:26.788Z,101483.50
2019-03-31T08:19:32.495Z,101481.44
2019-03-31T08:24:43.801Z,101498.84
2019-03-31T08:29:59.910Z,101494.72
2019-03-31T08:34:56.525Z,101494.20
2019-03-31T08:40:02.210Z,101500.03
2019-03-31T08:45:08.933Z,101509.06
2019-03-31T08:50:14.903Z,101508.91
2019-03-31T08:55:20.252Z,101510.54
2019-03-31T09:00:27.552Z,101526.64
2019-03-31T09:05:33.538Z,101546.88
2019-03-31T09:10:38.824Z,101529.61
2019-03-31T09:15:44.259Z,101563.27
2019-03-31T09:20:51.037Z,101557.27
2019-03-31T09:25:56.787Z,101550.89
2019-03-31T09:31:02.580Z,101570.20
2019-03-31T09:36:15.996Z,101587.42
2019-03-31T09:41:16.065Z,101588.51
2019-03-31T09:46:21.236Z,101585.13
2019-03-31T09:51:26.884Z,101594.16
2019-03-31T09:56:32.261Z,101578.12
2019-03-31T10:01:37.631Z,101592.47
2019-03-31T10:06:43.787Z,101586.48
2019-03-31T10:11:49.444Z,101612.24
2019-03-31T10:16:55.046Z,101615.88
2019-03-31T10:22:00.486Z,101627.38
2019-03-31T10:27:05.818Z,101616.23
2019-03-31T10:32:11.349Z,101611.70
2019-03-31T10:37:17.382Z,101631.88
2019-03-31T10:42:23.000Z,101630.64
2019-03-31T10:47:28.400Z,101641.77
2019-03-31T10:52:33.798Z,101650.27
2019-03-31T10:57:39.309Z,101664.97
2019-03-31T11:02:44.781Z,101658.77
2019-03-31T11:07:50.746Z,101676.66
2019-03-31T11:12:55.907Z,101668.88
2019-03-31T11:18:02.390Z,101673.23
2019-03-31T11:23:18.922Z,101688.89
2019-03-31T11:28:24.375Z,101682.61
2019-03-31T11:33:30.236Z,101680.08
2019-03-31T11:38:35.599Z,101690.97
2019-03-31T11:43:41.223Z,101695.47
2019-03-31T11:48:46.681Z,101693.33
2019-03-31T11:53:53.728Z,101703.17
2019-03-31T11:58:59.273Z,101718.38
2019-03-31T12:04:05.585Z,101714.72
2019-03-31T12:09:11.034Z,101703.84
2019-03-31T12:14:16.500Z,101706.36
2019-03-31T12:19:21.936Z,101701.77
2019-03-31T12:24:27.610Z,101703.48
2019-03-31T12:29:52.076Z,101717.33
2019-03-31T12:34:58.069Z,101718.61
2019-03-31T12:40:04.935Z,101719.69
2019-03-31T12:45:10.421Z,101741.31
2019-03-31T12:50:15.633Z,101739.58
2019-03-31T12:55:20.854Z,101742.19
2019-03-31T13:00:26.228Z,101749.90
2019-03-31T13:05:31.588Z,101748.11
2019-03-31T13:10:36.926Z,101773.25
2019-03-31T13:15:42.273Z,101756.95
2019-03-31T13:20:47.771Z,101755.75
2019-03-31T13:25:53.260Z,101773.89
2019-03-31T13:30:58.719Z,101771.36
2019-03-31T13:36:04.864Z,101779.63
2019-03-31T13:41:10.325Z,101798.83
2019-03-31T13:46:15.782Z,101816.89
2019-03-31T13:51:21.133Z,101824.98
2019-03-31T13:56:27.259Z,101829.41
2019-03-31T14:01:33.484Z,101831.36
2019-03-31T14:06:38.780Z,101851.48
2019-03-31T14:11:44.421Z,101858.00
2019-03-31T14:16:49.769Z,101882.72
2019-03-31T14:21:55.252Z,101881.59
2019-03-31T14:27:00.610Z,101863.04
2019-03-31T14:32:06.032Z,101866.44
2019-03-31T14:37:11.725Z,101876.25
2019-03-31T14:42:17.285Z,101866.48
2019-03-31T14:47:22.838Z,101865.06
2019-03-31T14:52:28.124Z,101867.26
2019-03-31T14:57:33.934Z,101859.83
2019-03-31T15:02:39.222Z,101872.27
2019-03-31T15:07:44.578Z,101881.37
2019-03-31T15:12:49.972Z,101892.34
2019-03-31T15:17:55.408Z,101889.05
2019-03-31T15:23:00.774Z,101881.67
2019-03-31T15:28:06.395Z,101894.05
2019-03-31T15:33:11.824Z,101902.64
2019-03-31T15:38:17.671Z,101889.95
2019-03-31T15:43:22.941Z,101903.52
2019-03-31T15:48:28.512Z,101922.88
2019-03-31T15:53:33.881Z,101932.46
2019-03-31T15:58:39.408Z,101934.19
2019-03-31T16:03:44.695Z,101926.85
2019-03-31T16:08:50.233Z,101944.88
2019-03-31T16:13:56.517Z,101946.80
2019-03-31T16:19:03.130Z,101955.16
2019-03-31T16:24:08.859Z,101959.55
2019-03-31T16:29:14.865Z,101968.22
2019-03-31T16:34:20.286Z,101966.96
2019-03-31T16:39:36.842Z,101976.58
2019-03-31T16:44:32.855Z,101975.50
2019-03-31T16:49:38.024Z,101981.71
2019-03-31T16:54:43.558Z,101996.09
2019-03-31T16:59:48.813Z,102013.66
2019-03-31T17:04:54.070Z,102023.70
2019-03-31T17:09:59.634Z,102025.66
2019-03-31T17:15:07.618Z,102033.20
2019-03-31T17:20:13.320Z,102044.58
2019-03-31T17:25:18.898Z,102060.18
2019-03-31T17:30:24.335Z,102063.24
2019-03-31T17:35:29.932Z,102060.33
2019-03-31T17:40:35.618Z,102073.30
2019-03-31T17:45:41.113Z,102077.45
2019-03-31T17:50:46.610Z,102089.64
2019-03-31T17:55:51.984Z,102094.96
2019-03-31T18:00:57.278Z,102121.55
2019-03-31T18:06:02.695Z,102138.80
2019-03-31T18:11:08.040Z,102159.14
2019-03-31T18:16:13.255Z,102165.34
2019-03-31T18:21:18.453Z,102176.53
2019-03-31T18:26:23.843Z,102189.70
2019-03-31T18:31:29.650Z,102199.15
2019-03-31T18:36:37.008Z,102204.33
2019-03-31T18:41:42.356Z,102222.75
2019-03-31T18:46:47.822Z,102224.44
2019-03-31T18:51:53.113Z,102229.92
2019-03-31T18:57:16.993Z,102231.33
2019-03-31T19:02:29.900Z,102235.72
2019-03-31T19:07:52.691Z,102230.84
2019-03-31T19:13:18.155Z,102243.07
2019-03-31T19:18:27.933Z,102245.78
2019-03-31T19:23:50.931Z,102247.98
2019-03-31T19:29:06.635Z,102247.16
2019-03-31T19:34:13.885Z,102246.46
2019-03-31T19:39:26.701Z,102255.94
2019-03-31T19:44:49.605Z,102262.69
2019-03-31T19:49:56.367Z,102279.40
2019-03-31T19:55:05.903Z,102286.41
2019-03-31T20:00:13.804Z,102274.91
2019-03-31T20:05:32.989Z,102271.02
2019-03-31T20:10:42.959Z,102274.22
2019-03-31T20:15:56.099Z,102279.14
2019-03-31T20:21:03.225Z,102284.96
2019-03-31T20:26:26.804Z,102286.75
2019-03-31T20:31:50.277Z,102296.29
2019-03-31T20:37:08.987Z,102296.90
2019-03-31T20:42:31.843Z,102297.19
2019-03-31T20:47:37.364Z,102310.13
2019-03-31T20:52:43.049Z,102317.70
2019-03-31T20:57:48.703Z,102326.75
2019-03-31T21:02:54.053Z,102326.50
2019-03-31T21:07:59.934Z,102333.26
2019-03-31T21:13:05.365Z,102347.55
2019-03-31T21:18:10.648Z,102349.63
2019-03-31T21:23:16.009Z,102341.87
2019-03-31T21:28:21.767Z,102344.91
2019-03-31T21:33:27.034Z,102349.38
2019-03-31T21:38:32.555Z,102356.48
2019-03-31T21:43:37.839Z,102354.47
2019-03-31T21:48:43.446Z,102365.18
2019-03-31T21:53:48.879Z,102376.16
2019-03-31T21:58:54.301Z,102381.34
2019-03-31T22:03:59.597Z,102377.72
2019-03-31T22:09:08.335Z,102386.71
2019-03-31T22:14:13.533Z,102388.20
2019-03-31T22:19:19.111Z,102388.47
2019-03-31T22:24:24.383Z,102400.40
2019-03-31T22:29:29.811Z,102415.41
2019-03-31T22:34:35.278Z,102425.80
2019-03-31T22:39:40.895Z,102427.59
2019-03-31T22:44:46.375Z,102420.99
2019-03-31T22:49:52.121Z,102415.56
2019-03-31T22:54:57.678Z,102425.34
2019-03-31T23:00:03.144Z,102420.92
2019-03-31T23:05:10.360Z,102425.48
2019-03-31T23:10:16.939Z,102422.09
2019-03-31T23:15:22.627Z,102422.26
2019-03-31T23:20:28.162Z,102414.70
2019-03-31T23:25:33.366Z,102406.30
2019-03-31T23:30:38.740Z,102406.30
2019-03-31T23:35:44.034Z,102425.95
2019-03-31T23:40:49.294Z,102425.55
2019-03-31T23:45:54.556Z,102425.92
2019-03-31T23:50:59.902Z,102434.47
2019-03-31T23:56:05.242Z,102429.41
